松山國際航空站 - ATIS

METAR RCSS 161800Z 09009KT 3500 -RA FEW006 BKN030 BKN050 17/16 Q1013 NOSIG RMK A2992 RA AMT 2.6MM=

站台狀態:Online
最後更新:2022-05-17 02:30:02